createdAt,value
2017-07-23T00:00:16.087Z,21.20
2017-07-23T00:02:45.838Z,21.30
2017-07-23T00:05:18.103Z,21.40
2017-07-23T00:07:48.599Z,21.40
2017-07-23T00:10:21.039Z,21.40
2017-07-23T00:12:52.032Z,21.50
2017-07-23T00:15:24.003Z,21.60
2017-07-23T00:17:54.483Z,21.60
2017-07-23T00:20:25.776Z,21.50
2017-07-23T00:22:56.173Z,21.40
2017-07-23T00:25:27.322Z,21.50
2017-07-23T00:27:57.198Z,21.60
2017-07-23T00:30:27.965Z,21.70
2017-07-23T00:32:59.251Z,21.70
2017-07-23T00:35:29.802Z,21.70
2017-07-23T00:37:59.928Z,21.60
2017-07-23T00:40:30.587Z,21.60
2017-07-23T00:43:00.771Z,21.60
2017-07-23T00:45:31.509Z,21.60
2017-07-23T00:48:01.846Z,21.60
2017-07-23T00:50:31.659Z,21.60
2017-07-23T00:53:02.541Z,21.70
2017-07-23T00:55:32.299Z,21.50
2017-07-23T00:58:02.857Z,21.50
2017-07-23T01:00:32.587Z,21.30
2017-07-23T01:05:37.347Z,21.40
2017-07-23T01:08:08.350Z,21.10
2017-07-23T01:10:39.341Z,21.10
2017-07-23T01:13:09.213Z,21.00
2017-07-23T01:15:38.841Z,20.90
2017-07-23T01:18:09.085Z,21.00
2017-07-23T01:20:41.597Z,20.90
2017-07-23T01:23:12.052Z,20.90
2017-07-23T01:25:42.994Z,20.80
2017-07-23T01:28:13.651Z,20.80
2017-07-23T01:30:44.253Z,20.90
2017-07-23T01:33:17.081Z,20.80
2017-07-23T01:35:46.902Z,20.90
2017-07-23T01:38:18.098Z,20.90
2017-07-23T01:40:49.521Z,20.80
2017-07-23T01:43:20.619Z,20.90
2017-07-23T01:45:51.701Z,21.00
2017-07-23T01:48:23.091Z,21.10
2017-07-23T01:50:53.381Z,21.10
2017-07-23T01:53:25.096Z,21.10
2017-07-23T01:55:58.319Z,21.40
2017-07-23T01:58:31.199Z,21.40
2017-07-23T02:01:05.595Z,21.50
2017-07-23T02:03:36.742Z,21.40
2017-07-23T02:06:07.397Z,21.30
2017-07-23T02:08:37.655Z,21.20
2017-07-23T02:11:07.161Z,21.10
2017-07-23T02:13:36.686Z,21.20
2017-07-23T02:16:06.691Z,21.20
2017-07-23T02:18:37.424Z,20.90
2017-07-23T02:24:12.238Z,20.50
2017-07-23T02:26:42.156Z,20.10
2017-07-23T02:29:12.293Z,20.20
2017-07-23T02:31:42.332Z,20.20
2017-07-23T02:34:12.083Z,20.20
2017-07-23T02:36:41.865Z,20.20
2017-07-23T02:39:12.010Z,20.20
2017-07-23T02:41:41.699Z,19.90
2017-07-23T02:44:12.005Z,19.50
2017-07-23T02:46:41.959Z,19.20
2017-07-23T02:49:12.126Z,19.00
2017-07-23T02:51:47.773Z,18.90
2017-07-23T02:54:17.794Z,18.80
2017-07-23T02:56:49.416Z,18.50
2017-07-23T02:59:19.020Z,18.30
2017-07-23T03:01:48.714Z,18.00
2017-07-23T03:04:18.277Z,17.70
2017-07-23T03:06:48.243Z,17.50
2017-07-23T03:09:18.323Z,17.40
2017-07-23T03:11:48.353Z,17.50
2017-07-23T03:14:18.571Z,17.40
2017-07-23T03:16:48.618Z,17.40
2017-07-23T03:19:18.562Z,17.30
2017-07-23T03:21:49.171Z,17.50
2017-07-23T03:24:19.156Z,17.60
2017-07-23T03:26:50.108Z,17.70
2017-07-23T03:29:19.635Z,17.70
2017-07-23T03:31:49.240Z,17.70
2017-07-23T03:34:19.936Z,17.70
2017-07-23T03:36:49.514Z,17.60
2017-07-23T03:39:20.881Z,17.80
2017-07-23T03:41:50.448Z,18.00
2017-07-23T03:44:20.555Z,18.10
2017-07-23T03:46:50.166Z,18.10
2017-07-23T03:49:19.748Z,18.10
2017-07-23T03:51:49.981Z,18.20
2017-07-23T03:54:21.742Z,18.10
2017-07-23T03:56:52.426Z,18.10
2017-07-23T03:59:23.122Z,18.20
2017-07-23T04:01:53.183Z,18.20
2017-07-23T04:04:27.076Z,18.30
2017-07-23T04:06:56.743Z,18.30
2017-07-23T04:09:26.849Z,18.40
2017-07-23T04:11:57.122Z,18.40
2017-07-23T04:14:27.066Z,18.30
2017-07-23T04:16:56.896Z,18.20
2017-07-23T04:19:26.954Z,18.30
2017-07-23T04:22:16.181Z,18.20
2017-07-23T04:24:46.386Z,18.40
2017-07-23T04:27:17.192Z,18.40
2017-07-23T04:29:47.214Z,18.40
2017-07-23T04:32:17.858Z,18.50
2017-07-23T04:34:48.966Z,18.20
2017-07-23T04:37:19.298Z,18.00
2017-07-23T04:39:48.953Z,18.00
2017-07-23T04:42:19.751Z,17.90
2017-07-23T04:44:49.602Z,18.00
2017-07-23T04:47:19.537Z,17.80
2017-07-23T04:49:49.372Z,17.70
2017-07-23T04:52:19.286Z,17.70
2017-07-23T04:54:49.088Z,17.70
2017-07-23T04:57:19.557Z,18.00
2017-07-23T04:59:49.531Z,18.20
2017-07-23T05:02:19.549Z,18.30
2017-07-23T05:04:49.922Z,18.20
2017-07-23T05:07:20.745Z,17.90
2017-07-23T05:09:53.331Z,17.80
2017-07-23T05:12:22.874Z,18.10
2017-07-23T05:14:52.864Z,18.20
2017-07-23T05:17:23.592Z,17.70
2017-07-23T05:19:54.291Z,17.70
2017-07-23T05:22:24.254Z,17.70
2017-07-23T05:24:55.188Z,18.20
2017-07-23T05:27:27.473Z,18.10
2017-07-23T05:29:57.279Z,18.10
2017-07-23T05:32:27.926Z,18.50
2017-07-23T05:34:58.020Z,18.50
2017-07-23T05:37:27.983Z,18.80
2017-07-23T05:39:58.115Z,18.80
2017-07-23T05:42:33.547Z,18.80
2017-07-23T05:45:04.365Z,18.90
2017-07-23T05:47:35.391Z,19.00
2017-07-23T05:50:05.145Z,19.10
2017-07-23T05:52:35.266Z,19.00
2017-07-23T05:55:05.538Z,19.10
2017-07-23T05:57:35.235Z,19.30
2017-07-23T06:00:05.670Z,19.40
2017-07-23T06:02:36.209Z,19.50
2017-07-23T06:05:05.776Z,19.70
2017-07-23T06:07:35.307Z,19.90
2017-07-23T06:10:04.934Z,20.00
2017-07-23T06:12:35.226Z,20.20
2017-07-23T06:15:04.787Z,20.40
2017-07-23T06:17:34.360Z,20.60
2017-07-23T06:20:04.339Z,20.80
2017-07-23T06:22:33.871Z,20.90
2017-07-23T06:25:27.504Z,21.10
2017-07-23T06:27:57.311Z,21.40
2017-07-23T06:30:26.775Z,21.80
2017-07-23T06:32:56.523Z,22.30
2017-07-23T06:35:26.134Z,22.40
2017-07-23T06:37:55.947Z,23.40
2017-07-23T06:40:26.426Z,24.30
2017-07-23T06:42:55.951Z,25.30
2017-07-23T06:45:25.497Z,25.10
2017-07-23T06:47:55.306Z,26.50
2017-07-23T06:50:30.531Z,28.50
2017-07-23T06:53:17.624Z,29.70
2017-07-23T06:55:55.067Z,28.90
2017-07-23T06:58:25.104Z,31.10
2017-07-23T07:00:54.784Z,32.80
2017-07-23T07:03:24.442Z,34.20
2017-07-23T07:06:04.372Z,34.70
2017-07-23T07:08:34.020Z,32.10
2017-07-23T07:11:04.169Z,33.80
2017-07-23T07:13:33.722Z,34.80
2017-07-23T07:16:07.408Z,36.80
2017-07-23T07:18:37.803Z,37.30
2017-07-23T07:21:07.463Z,37.70
2017-07-23T07:23:37.067Z,37.70
2017-07-23T07:26:06.874Z,40.50
2017-07-23T07:28:36.423Z,41.30
2017-07-23T07:31:05.987Z,41.60
2017-07-23T07:33:35.847Z,37.80
2017-07-23T07:36:05.483Z,39.20
2017-07-23T07:38:35.122Z,41.20
2017-07-23T07:41:04.931Z,42.10
2017-07-23T07:43:34.704Z,40.90
2017-07-23T07:46:04.483Z,38.10
2017-07-23T07:48:34.006Z,34.80
2017-07-23T07:51:03.555Z,32.70
2017-07-23T07:53:33.398Z,33.00
2017-07-23T07:56:02.931Z,33.80
2017-07-23T07:58:32.554Z,34.10
2017-07-23T08:01:02.543Z,35.70
2017-07-23T08:03:32.177Z,35.80
2017-07-23T08:06:02.092Z,38.30
2017-07-23T08:08:31.709Z,37.70
2017-07-23T08:11:01.580Z,35.90
2017-07-23T08:13:31.502Z,36.80
2017-07-23T08:16:01.125Z,32.90
2017-07-23T08:18:30.631Z,34.60
2017-07-23T08:21:00.101Z,36.00
2017-07-23T08:23:29.567Z,37.50
2017-07-23T08:25:59.333Z,38.30
2017-07-23T08:28:28.803Z,39.10
2017-07-23T08:30:58.382Z,38.10
2017-07-23T08:33:28.404Z,38.20
2017-07-23T08:35:58.862Z,34.40
2017-07-23T08:38:28.618Z,34.40
2017-07-23T08:40:58.285Z,33.20
2017-07-23T08:43:27.958Z,35.70
2017-07-23T08:46:02.483Z,37.20
2017-07-23T08:48:34.397Z,37.90
2017-07-23T08:51:04.606Z,38.10
2017-07-23T08:53:34.332Z,33.00
2017-07-23T08:56:03.822Z,35.20
2017-07-23T08:58:33.630Z,32.90
2017-07-23T09:01:03.164Z,28.40
2017-07-23T09:03:32.718Z,27.70
2017-07-23T09:06:02.599Z,27.50
2017-07-23T09:08:32.114Z,28.00
2017-07-23T09:11:01.646Z,28.40
2017-07-23T09:13:31.189Z,29.10
2017-07-23T09:16:00.730Z,28.10
2017-07-23T09:18:30.591Z,27.00
2017-07-23T09:21:01.526Z,26.60
2017-07-23T09:23:33.202Z,26.60
2017-07-23T09:26:03.088Z,26.70
2017-07-23T09:28:32.597Z,28.30
2017-07-23T09:31:02.369Z,27.30
2017-07-23T09:33:31.880Z,27.00
2017-07-23T09:36:01.390Z,26.30
2017-07-23T09:38:30.898Z,26.20
2017-07-23T09:41:00.418Z,25.20
2017-07-23T09:43:30.204Z,24.70
2017-07-23T09:45:59.761Z,25.70
2017-07-23T09:48:29.226Z,26.00
2017-07-23T09:50:59.080Z,25.80
2017-07-23T09:53:28.563Z,26.20
2017-07-23T09:55:58.067Z,26.80
2017-07-23T09:58:27.647Z,26.70
2017-07-23T10:00:57.274Z,27.30
2017-07-23T10:03:27.614Z,27.60
2017-07-23T10:05:57.648Z,28.40
2017-07-23T10:08:27.182Z,29.20
2017-07-23T10:10:57.094Z,29.20
2017-07-23T10:13:28.466Z,29.10
2017-07-23T10:15:58.300Z,29.30
2017-07-23T10:18:28.043Z,28.10
2017-07-23T10:20:57.717Z,27.50
2017-07-23T10:23:27.511Z,27.40
2017-07-23T10:27:26.424Z,27.60
2017-07-23T10:29:56.128Z,27.20
2017-07-23T10:32:25.986Z,27.10
2017-07-23T10:34:55.833Z,26.80
2017-07-23T10:37:25.425Z,26.50
2017-07-23T10:39:55.111Z,26.40
2017-07-23T10:42:24.615Z,26.30
2017-07-23T10:44:54.267Z,26.50
2017-07-23T10:47:24.115Z,26.70
2017-07-23T10:50:03.219Z,26.90
2017-07-23T10:52:33.004Z,27.10
2017-07-23T10:55:02.661Z,27.30
2017-07-23T10:57:32.250Z,27.40
2017-07-23T11:00:03.180Z,26.90
2017-07-23T11:02:32.776Z,27.30
2017-07-23T11:05:02.687Z,27.70
2017-07-23T11:07:32.809Z,28.60
2017-07-23T11:10:02.301Z,30.50
2017-07-23T11:12:32.597Z,31.40
2017-07-23T11:15:02.146Z,31.80
2017-07-23T11:17:31.967Z,32.10
2017-07-23T11:20:01.775Z,31.30
2017-07-23T11:22:31.303Z,31.10
2017-07-23T11:25:01.123Z,30.60
2017-07-23T11:27:30.644Z,30.80
2017-07-23T11:30:00.258Z,30.30
2017-07-23T11:32:35.085Z,29.70
2017-07-23T11:35:05.635Z,29.30
2017-07-23T11:37:44.022Z,29.20
2017-07-23T11:40:15.089Z,27.90
2017-07-23T11:42:44.663Z,28.00
2017-07-23T11:45:14.245Z,28.70
2017-07-23T11:47:43.762Z,29.00
2017-07-23T11:50:13.296Z,29.40
2017-07-23T11:52:43.203Z,27.80
2017-07-23T11:55:12.748Z,27.30
2017-07-23T11:57:42.934Z,27.60
2017-07-23T12:00:13.272Z,27.30
2017-07-23T12:02:43.839Z,27.20
2017-07-23T12:05:13.482Z,27.30
2017-07-23T12:07:43.292Z,27.20
2017-07-23T12:10:12.796Z,26.70
2017-07-23T12:12:42.581Z,26.60
2017-07-23T12:15:12.115Z,26.00
2017-07-23T12:17:41.840Z,26.00
2017-07-23T12:20:11.739Z,25.20
2017-07-23T12:22:41.382Z,24.90
2017-07-23T12:25:11.022Z,25.60
2017-07-23T12:27:40.565Z,25.60
2017-07-23T12:30:10.329Z,25.30
2017-07-23T12:32:40.299Z,24.70
2017-07-23T12:35:09.846Z,24.80
2017-07-23T12:37:40.255Z,25.30
2017-07-23T12:40:10.855Z,25.90
2017-07-23T12:42:40.905Z,25.90
2017-07-23T12:45:10.995Z,25.80
2017-07-23T12:47:40.745Z,25.90
2017-07-23T12:50:10.410Z,26.10
2017-07-23T12:52:40.485Z,26.10
2017-07-23T12:55:10.094Z,26.40
2017-07-23T12:57:39.914Z,26.70
2017-07-23T13:00:09.454Z,26.30
2017-07-23T13:02:39.112Z,26.30
2017-07-23T13:05:08.916Z,25.60
2017-07-23T13:07:44.243Z,25.70
2017-07-23T13:10:13.919Z,25.60
2017-07-23T13:12:43.814Z,25.80
2017-07-23T13:15:13.305Z,25.40
2017-07-23T13:17:50.219Z,25.30
2017-07-23T13:20:20.917Z,24.50
2017-07-23T13:22:50.558Z,24.50
2017-07-23T13:25:20.359Z,24.80
2017-07-23T13:27:49.923Z,25.10
2017-07-23T13:30:19.458Z,24.50
2017-07-23T13:32:49.133Z,24.40
2017-07-23T13:35:18.716Z,24.30
2017-07-23T13:37:48.485Z,24.30
2017-07-23T13:40:18.002Z,24.40
2017-07-23T13:42:47.526Z,24.00
2017-07-23T13:45:17.364Z,24.10
2017-07-23T13:47:46.929Z,24.10
2017-07-23T13:50:16.506Z,24.10
2017-07-23T13:52:46.060Z,23.90
2017-07-23T13:55:15.626Z,24.20
2017-07-23T13:57:45.434Z,24.20
2017-07-23T14:00:15.102Z,23.80
2017-07-23T14:02:44.761Z,23.40
2017-07-23T14:05:14.546Z,23.80
2017-07-23T14:07:44.170Z,23.80
2017-07-23T14:10:13.838Z,24.20
2017-07-23T14:12:43.388Z,24.60
2017-07-23T14:15:12.893Z,25.00
2017-07-23T14:17:42.661Z,25.20
2017-07-23T14:20:12.221Z,25.30
2017-07-23T14:22:41.851Z,25.10
2017-07-23T14:25:11.402Z,25.20
2017-07-23T14:27:40.915Z,25.20
2017-07-23T14:30:10.804Z,25.00
2017-07-23T14:32:40.585Z,24.50
2017-07-23T14:35:10.058Z,24.30
2017-07-23T14:37:39.807Z,23.90
2017-07-23T14:40:09.362Z,23.50
2017-07-23T14:42:38.850Z,23.70
2017-07-23T14:45:08.689Z,23.80
2017-07-23T14:47:38.603Z,23.80
2017-07-23T14:50:08.412Z,24.20
2017-07-23T14:52:37.918Z,24.30
2017-07-23T14:55:07.494Z,24.00
2017-07-23T14:57:37.013Z,23.90
2017-07-23T15:00:06.554Z,23.40
2017-07-23T15:02:36.714Z,23.50
2017-07-23T15:05:06.253Z,23.70
2017-07-23T15:07:35.927Z,23.80
2017-07-23T15:10:06.270Z,23.50
2017-07-23T15:12:36.166Z,23.30
2017-07-23T15:15:05.811Z,23.50
2017-07-23T15:17:35.726Z,23.50
2017-07-23T15:20:06.242Z,23.40
2017-07-23T15:22:36.047Z,23.70
2017-07-23T15:25:05.774Z,23.70
2017-07-23T15:27:35.302Z,23.60
2017-07-23T15:30:05.331Z,23.30
2017-07-23T15:32:35.003Z,23.10
2017-07-23T15:35:04.706Z,23.20
2017-07-23T15:37:34.628Z,23.20
2017-07-23T15:40:04.228Z,23.40
2017-07-23T15:42:33.834Z,23.40
2017-07-23T15:45:03.534Z,23.50
2017-07-23T15:47:33.099Z,23.60
2017-07-23T15:50:03.260Z,23.60
2017-07-23T15:52:33.477Z,23.40
2017-07-23T15:55:03.167Z,23.20
2017-07-23T15:57:32.969Z,23.20
2017-07-23T16:00:02.498Z,23.10
2017-07-23T16:02:32.026Z,22.90
2017-07-23T16:06:30.793Z,23.00
2017-07-23T16:09:01.992Z,23.10
2017-07-23T16:11:33.643Z,23.10
2017-07-23T16:14:04.209Z,23.00
2017-07-23T16:16:35.872Z,23.10
2017-07-23T16:19:06.657Z,22.80
2017-07-23T16:21:36.692Z,22.80
2017-07-23T16:24:06.293Z,22.70
2017-07-23T16:26:40.878Z,22.80
2017-07-23T16:29:10.815Z,22.80
2017-07-23T16:31:40.413Z,22.30
2017-07-23T16:34:10.048Z,22.40
2017-07-23T16:36:41.460Z,22.50
2017-07-23T16:39:12.444Z,22.30
2017-07-23T16:41:42.014Z,22.00
2017-07-23T16:44:11.642Z,21.50
2017-07-23T16:46:41.653Z,21.60
2017-07-23T16:49:11.246Z,21.70
2017-07-23T16:51:40.997Z,21.60
2017-07-23T16:54:11.009Z,21.60
2017-07-23T16:56:41.087Z,21.50
2017-07-23T16:59:10.894Z,21.40
2017-07-23T17:01:40.560Z,21.40
2017-07-23T17:04:10.589Z,21.10
2017-07-23T17:06:40.648Z,20.80
2017-07-23T17:22:18.915Z,20.20
2017-07-23T17:24:48.431Z,19.80
2017-07-23T17:27:17.954Z,19.40
2017-07-23T17:29:47.768Z,19.40
2017-07-23T17:32:17.333Z,19.70
2017-07-23T17:34:46.846Z,20.00
2017-07-23T17:37:16.965Z,20.10
2017-07-23T17:39:49.252Z,20.30
2017-07-23T17:42:19.345Z,20.40
2017-07-23T17:44:49.703Z,20.20
2017-07-23T17:47:20.435Z,20.40
2017-07-23T17:49:50.423Z,20.20
2017-07-23T17:52:20.535Z,20.40
2017-07-23T17:54:50.174Z,20.50
2017-07-23T17:57:19.991Z,20.40
2017-07-23T17:59:52.802Z,20.10
2017-07-23T18:02:23.226Z,20.40
2017-07-23T18:04:52.934Z,20.50
2017-07-23T18:07:22.532Z,20.50
2017-07-23T18:10:00.737Z,20.60
2017-07-23T18:12:30.326Z,20.70
2017-07-23T18:14:59.923Z,20.70
2017-07-23T18:17:29.856Z,20.70
2017-07-23T18:19:59.483Z,20.70
2017-07-23T18:22:29.058Z,20.60
2017-07-23T18:24:58.898Z,20.50
2017-07-23T18:27:28.427Z,20.50
2017-07-23T18:29:58.025Z,20.60
2017-07-23T18:32:27.910Z,20.70
2017-07-23T18:34:57.487Z,20.70
2017-07-23T18:37:27.187Z,20.20
2017-07-23T18:39:57.153Z,20.40
2017-07-23T18:42:26.971Z,20.50
2017-07-23T18:44:56.552Z,20.50
2017-07-23T18:47:26.518Z,20.60
2017-07-23T18:49:56.033Z,20.70
2017-07-23T18:52:27.130Z,20.40
2017-07-23T18:54:56.734Z,20.50
2017-07-23T18:57:26.281Z,20.60
2017-07-23T18:59:55.947Z,20.50
2017-07-23T19:02:25.746Z,20.60
2017-07-23T19:04:55.502Z,20.60
2017-07-23T19:07:25.202Z,20.60
2017-07-23T19:09:55.120Z,20.70
2017-07-23T19:12:24.712Z,20.70
2017-07-23T19:14:55.039Z,20.70
2017-07-23T19:17:25.071Z,20.70
2017-07-23T19:19:54.638Z,20.80
2017-07-23T19:22:24.418Z,20.80
2017-07-23T19:24:54.324Z,20.70
2017-07-23T19:27:24.089Z,20.60
2017-07-23T19:29:53.829Z,20.30
2017-07-23T19:32:24.462Z,19.90
2017-07-23T19:34:54.033Z,19.90
2017-07-23T19:37:28.653Z,19.80
2017-07-23T19:39:59.147Z,20.00
2017-07-23T19:42:30.155Z,20.10
2017-07-23T19:45:00.098Z,20.10
2017-07-23T19:47:30.496Z,19.90
2017-07-23T19:50:00.737Z,20.10
2017-07-23T19:52:30.260Z,20.30
2017-07-23T19:54:59.827Z,20.30
2017-07-23T19:57:30.382Z,20.00
2017-07-23T20:00:00.806Z,20.10
2017-07-23T20:02:30.351Z,20.20
2017-07-23T20:04:59.870Z,20.40
2017-07-23T20:07:29.686Z,20.10
2017-07-23T20:09:59.224Z,19.70
2017-07-23T20:12:30.519Z,19.80
2017-07-23T20:15:00.419Z,19.90
2017-07-23T20:17:29.948Z,20.10
2017-07-23T20:19:59.466Z,20.20
2017-07-23T20:22:28.992Z,20.30
2017-07-23T20:24:58.832Z,20.30
2017-07-23T20:27:28.330Z,20.40
2017-07-23T20:29:57.848Z,20.20
2017-07-23T20:32:27.334Z,20.20
2017-07-23T20:34:57.164Z,20.40
2017-07-23T20:37:26.663Z,20.50
2017-07-23T20:39:56.186Z,20.60
2017-07-23T20:42:25.790Z,20.50
2017-07-23T20:44:55.295Z,20.50
2017-07-23T20:47:24.835Z,20.40
2017-07-23T20:49:54.382Z,20.10
2017-07-23T20:52:23.938Z,20.20
2017-07-23T20:54:53.499Z,20.20
2017-07-23T20:57:23.043Z,20.10
2017-07-23T20:59:52.843Z,20.20
2017-07-23T21:02:22.357Z,20.10
2017-07-23T21:04:53.357Z,19.90
2017-07-23T21:07:22.937Z,19.90
2017-07-23T21:09:52.614Z,19.90
2017-07-23T21:12:22.654Z,19.80
2017-07-23T21:14:52.446Z,19.90
2017-07-23T21:17:21.963Z,19.90
2017-07-23T21:19:51.500Z,19.70
2017-07-23T21:22:21.063Z,19.90
2017-07-23T21:24:50.582Z,19.80
2017-07-23T21:27:20.505Z,19.80
2017-07-23T21:29:50.597Z,19.70
2017-07-23T21:32:20.718Z,19.70
2017-07-23T21:34:51.479Z,19.70
2017-07-23T21:37:21.379Z,19.70
2017-07-23T21:39:50.861Z,19.80
2017-07-23T21:42:20.800Z,19.80
2017-07-23T21:44:51.563Z,19.40
2017-07-23T21:47:21.107Z,19.40
2017-07-23T21:49:50.856Z,19.40
2017-07-23T21:52:20.391Z,19.30
2017-07-23T21:54:49.899Z,19.30
2017-07-23T21:57:19.431Z,19.40
2017-07-23T21:59:48.934Z,19.60
2017-07-23T22:02:18.899Z,19.60
2017-07-23T22:04:49.008Z,19.60
2017-07-23T22:07:19.563Z,19.50
2017-07-23T22:09:49.274Z,19.40
2017-07-23T22:12:19.738Z,19.50
2017-07-23T22:14:50.511Z,19.50
2017-07-23T22:17:21.664Z,19.50
2017-07-23T22:19:52.706Z,19.50
2017-07-23T22:22:22.909Z,19.50
2017-07-23T22:24:52.995Z,19.40
2017-07-23T22:27:23.354Z,19.50
2017-07-23T22:29:56.039Z,19.00
2017-07-23T22:32:27.727Z,19.00
2017-07-23T22:34:57.974Z,18.50
2017-07-23T22:37:27.986Z,17.80
2017-07-23T22:39:57.743Z,17.80
2017-07-23T22:42:28.385Z,18.00
2017-07-23T22:44:59.062Z,18.50
2017-07-23T22:47:29.046Z,18.50
2017-07-23T22:49:59.546Z,18.70
2017-07-23T22:52:29.651Z,18.80
2017-07-23T22:54:59.597Z,18.90
2017-07-23T22:57:30.671Z,19.00
2017-07-23T23:00:00.214Z,19.00
2017-07-23T23:02:30.530Z,18.90
2017-07-23T23:05:00.891Z,18.60
2017-07-23T23:07:32.425Z,18.80
2017-07-23T23:10:02.427Z,18.80
2017-07-23T23:12:32.709Z,18.70
2017-07-23T23:15:03.419Z,19.00
2017-07-23T23:17:34.571Z,19.00
2017-07-23T23:20:05.225Z,19.10
2017-07-23T23:22:35.217Z,19.00
2017-07-23T23:25:06.378Z,19.00
2017-07-23T23:27:36.293Z,19.00
2017-07-23T23:30:06.018Z,19.00
2017-07-23T23:32:36.365Z,19.10
2017-07-23T23:35:05.854Z,19.20
2017-07-23T23:37:35.683Z,19.20
2017-07-23T23:40:06.052Z,19.00
2017-07-23T23:42:36.722Z,18.60
2017-07-23T23:45:06.225Z,18.60
2017-07-23T23:47:35.974Z,18.70
2017-07-23T23:50:05.564Z,18.80
2017-07-23T23:52:35.112Z,18.30
2017-07-23T23:55:05.334Z,18.30
2017-07-23T23:57:36.313Z,18.60
